Impacts TAF Board
For situational awareness. Not to be used for flight planning purposes.
IDs:

KSSF - San Antonio/Stinson, TX, US

Issued at 1132 UTC 13 Dec 2019
Updated at 1352 UTC 13 Dec 2019
Potential Impact None Slight Moderate High
Time1253Z 13/14Z 13/15Z 13/16Z 13/17Z 13/18Z 13/19Z 13/20Z 13/21Z 13/22Z 13/23Z 14/00Z 14/01Z 14/02Z>>
Type OBS PRVL PRVL PRVL PRVL PRVL PRVL PRVL PRVL PRVL PRVL PRVL PRVL PRVL
VIS 10 >6 >6 >6 >6 >6 >6 >6 >6 >6 >6 >6 >6 >6
CIG -- -- -- -- -- -- -- -- -- -- -- -- -- --
Cover CLR FEW FEW FEW FEW FEW FEW SKC SKC SKC SKC SKC SKC SKC
FltCat VFR VFR VFR VFR VFR VFR VFR VFR VFR VFR VFR VFR VFR VFR
WX -- -- -- -- -- -- -- -- -- -- -- -- -- --
WDir 260 270 270 270 270 270 270 280 280 280 280 300 300 300
WSpd 3 5 5 5 5 5 5 12 12 12 12 4 4 4
WGst -- -- -- -- -- -- -- -- -- -- -- -- -- --
Raw TAF
KSSF 131132Z 1312/1412 27005KT P6SM FEW250
  FM132000 28012KT P6SM SKC
  FM140000 30004KT P6SM SKC


Raw METAR
KSSF 131253Z 26003KT 10SM CLR 03/03 A2998 RMK AO2 SLP157 T00330028
KSSF 131153Z AUTO 31003KT 10SM CLR 03/03 A2999 RMK AO2 SLP157 T00330028 10056 20022 55011
KSSF 131053Z AUTO 27003KT 10SM CLR 03/02 A2998 RMK AO2 SLP153 T00280022

METAR Board
Radar Display
Forecast Discussion
For situational awareness. Not to be used for flight planning purposes.